Time;durP1;ratioP1;P1;durP2;ratioP2;P2;SDS_P1;SDS_P2;PMS_P1;PMS_P2;Temp;Humidity;BMP_temperature;BMP_pressure;BME280_temperature;BME280_humidity;BME280_pressure;Samples;Min_cycle;Max_cycle;Signal;HPM_P1;HPM_P2
2022/01/18 00:00:23;;;;;;;12.90;6.47;;;24.20;99.90;;;;;;4986633;28;20190;-74
2022/01/18 00:02:51;;;;;;;14.13;6.33;;;24.20;99.90;;;;;;4978459;28;20211;-75
2022/01/18 00:05:19;;;;;;;13.20;6.10;;;24.20;99.90;;;;;;4995954;28;20249;-74
2022/01/18 00:07:47;;;;;;;16.47;7.10;;;24.30;99.90;;;;;;4995929;28;20205;-73
2022/01/18 00:10:15;;;;;;;18.00;6.53;;;24.40;99.90;;;;;;4994601;28;20186;-74
2022/01/18 00:13:07;;;;;;;15.60;6.73;;;24.50;99.90;;;;;;4993682;28;20719;-74
2022/01/18 00:16:24;;;;;;;11.97;5.93;;;24.60;99.90;;;;;;4977967;28;20211;-74
2022/01/18 00:18:33;;;;;;;15.40;5.10;;;24.70;99.90;;;;;;4993970;28;20222;-74
2022/01/18 00:23:39;;;;;;;13.53;5.33;;;24.60;99.90;;;;;;4995727;28;20246;-75
2022/01/18 00:26:08;;;;;;;10.53;5.00;;;24.80;99.90;;;;;;4995268;28;20196;-74
2022/01/18 00:28:37;;;;;;;15.80;5.50;;;24.80;99.90;;;;;;4995711;28;20186;-74
2022/01/18 00:36:37;;;;;;;10.63;4.97;;;25.50;99.90;;;;;;4995268;28;20186;-73
2022/01/18 00:39:09;;;;;;;18.90;5.67;;;25.70;99.90;;;;;;4994757;28;20203;-74
2022/01/18 00:41:37;;;;;;;12.13;3.83;;;25.20;99.90;;;;;;4993756;28;20587;-74
2022/01/18 00:44:06;;;;;;;18.20;4.63;;;25.40;99.90;;;;;;4993274;28;20677;-73
2022/01/18 00:46:35;;;;;;;12.40;4.80;;;25.20;99.90;;;;;;4975726;28;20620;-73
2022/01/18 00:49:03;;;;;;;18.80;5.00;;;25.30;99.90;;;;;;4994338;28;20198;-73
2022/01/18 00:51:36;;;;;;;12.67;4.57;;;25.50;99.90;;;;;;4994111;28;20178;-72
2022/01/18 00:54:05;;;;;;;12.53;4.00;;;25.40;99.90;;;;;;4994011;28;20270;-73
2022/01/18 00:56:32;;;;;;;19.57;5.33;;;25.50;99.90;;;;;;4977172;28;20240;-73
2022/01/18 00:59:01;;;;;;;11.77;4.77;;;25.30;99.90;;;;;;4994653;28;20190;-73
2022/01/18 01:01:30;;;;;;;12.80;3.73;;;25.40;99.90;;;;;;4993976;28;20269;-72
2022/01/18 01:04:02;;;;;;;18.43;4.63;;;25.40;99.90;;;;;;4993860;28;20222;-73
2022/01/18 01:06:31;;;;;;;14.40;4.90;;;25.40;99.90;;;;;;4994585;28;20266;-73
2022/01/18 01:08:58;;;;;;;17.80;5.03;;;25.40;99.90;;;;;;4993990;28;20202;-73
2022/01/18 01:11:27;;;;;;;14.23;3.67;;;25.20;99.90;;;;;;4994058;28;20190;-72
2022/01/18 01:13:59;;;;;;;14.43;3.77;;;24.90;99.90;;;;;;4994377;28;20543;-74
2022/01/18 01:35:39;;;;;;;14.73;3.97;;;25.20;99.90;;;;;;4994876;28;20237;-73
2022/01/18 01:44:00;;;;;;;17.00;4.00;;;25.00;99.90;;;;;;4994207;28;20224;-72
2022/01/18 01:46:27;;;;;;;18.40;4.20;;;25.00;99.90;;;;;;4991286;28;20191;-73
2022/01/18 01:48:57;;;;;;;14.17;3.33;;;25.00;99.90;;;;;;4993709;28;20183;-72
2022/01/18 01:51:31;;;;;;;12.60;3.53;;;25.00;99.90;;;;;;4993496;28;20195;-73
2022/01/18 01:54:05;;;;;;;21.80;3.87;;;25.00;99.90;;;;;;4993784;28;20167;-73
2022/01/18 01:56:33;;;;;;;11.80;3.70;;;25.20;99.90;;;;;;4993416;28;20186;-73
2022/01/18 01:59:01;;;;;;;9.00;3.47;;;25.40;99.90;;;;;;4993209;28;20321;-72
2022/01/18 02:01:28;;;;;;;11.40;3.47;;;25.40;99.90;;;;;;4993368;28;20613;-72
2022/01/18 02:03:57;;;;;;;13.13;3.07;;;25.40;99.90;;;;;;4993646;28;20190;-71
2022/01/18 02:06:25;;;;;;;11.90;3.70;;;25.60;99.90;;;;;;4993001;28;20202;-72
2022/01/18 02:08:52;;;;;;;12.50;3.83;;;25.40;99.90;;;;;;4993871;28;20186;-72
2022/01/18 02:11:19;;;;;;;13.40;3.60;;;25.20;99.90;;;;;;4993274;28;20178;-72
2022/01/18 02:13:49;;;;;;;17.87;3.83;;;25.00;99.90;;;;;;4993029;28;20555;-73
2022/01/18 02:21:46;;;;;;;13.63;4.00;;;24.90;99.90;;;;;;4993156;28;20187;-73
2022/01/18 02:21:52;;;;;;;10.50;3.53;;;24.70;99.90;;;;;;4992192;28;20209;-73
2022/01/18 02:24:22;;;;;;;12.40;3.17;;;24.70;99.90;;;;;;4993152;28;20190;-73
2022/01/18 02:26:49;;;;;;;8.80;2.90;;;24.80;99.90;;;;;;4993419;28;20186;-73
2022/01/18 02:29:17;;;;;;;15.20;3.83;;;24.80;99.90;;;;;;4993106;28;20182;-71
2022/01/18 02:31:45;;;;;;;13.83;3.70;;;25.00;99.90;;;;;;4975550;28;20237;-72
2022/01/18 02:34:18;;;;;;;9.37;2.70;;;25.20;99.90;;;;;;4992597;28;20186;-71
2022/01/18 02:36:46;;;;;;;13.53;3.67;;;25.20;99.90;;;;;;4973634;28;20214;-70
2022/01/18 02:39:18;;;;;;;12.10;3.50;;;25.30;99.90;;;;;;4983855;28;20194;-70
2022/01/18 02:41:56;;;;;;;15.37;4.13;;;25.30;99.90;;;;;;4992636;28;20257;-72
2022/01/18 02:44:25;;;;;;;17.27;4.30;;;25.30;99.90;;;;;;4992917;28;20187;-70
2022/01/18 02:46:52;;;;;;;14.67;3.80;;;25.40;99.90;;;;;;4993087;28;20182;-72
2022/01/18 02:49:20;;;;;;;10.43;3.27;;;25.00;99.90;;;;;;4975948;28;20183;-73
2022/01/18 02:51:48;;;;;;;12.60;3.70;;;25.00;99.90;;;;;;4992892;28;20185;-71
2022/01/18 02:54:17;;;;;;;9.37;3.80;;;25.10;99.90;;;;;;4992723;28;20659;-71
2022/01/18 02:56:54;;;;;;;10.17;3.60;;;25.20;99.90;;;;;;4992661;28;20253;-71
2022/01/18 03:05:01;;;;;;;17.17;4.37;;;25.50;99.90;;;;;;4990804;28;20182;-71
2022/01/18 03:07:28;;;;;;;12.80;3.90;;;25.60;99.90;;;;;;4993199;28;20170;-72
2022/01/18 03:09:56;;;;;;;11.20;3.43;;;25.60;99.90;;;;;;4975276;28;20189;-72
2022/01/18 03:12:24;;;;;;;9.87;3.97;;;25.60;99.90;;;;;;4975266;28;20575;-72
2022/01/18 03:14:51;;;;;;;10.43;3.93;;;25.50;99.90;;;;;;4975075;28;20263;-73
2022/01/18 03:17:19;;;;;;;11.83;4.07;;;25.50;99.90;;;;;;4994790;28;20194;-72
2022/01/18 03:19:46;;;;;;;14.47;4.00;;;25.40;99.90;;;;;;4996168;28;20699;-70
2022/01/18 03:22:13;;;;;;;11.93;4.27;;;25.20;99.90;;;;;;4996019;28;20210;-71
2022/01/18 03:24:54;;;;;;;16.10;4.70;;;25.10;99.90;;;;;;4996381;28;20191;-74
2022/01/18 03:30:10;;;;;;;17.30;5.27;;;24.90;99.90;;;;;;4996853;28;20189;-72
2022/01/18 03:32:38;;;;;;;14.47;4.97;;;24.80;99.90;;;;;;4996438;28;20659;-74
2022/01/18 03:35:08;;;;;;;17.10;5.00;;;24.60;99.90;;;;;;4996977;28;20170;-73
2022/01/18 03:37:36;;;;;;;13.07;5.00;;;24.50;99.90;;;;;;4996452;28;20241;-74
2022/01/18 03:40:06;;;;;;;19.53;5.30;;;24.30;99.90;;;;;;4996063;28;20185;-73
2022/01/18 03:42:38;;;;;;;18.73;5.40;;;24.30;99.90;;;;;;4978804;28;20333;-72
2022/01/18 03:45:08;;;;;;;17.33;5.10;;;24.20;99.90;;;;;;4995862;28;20221;-73
2022/01/18 03:47:36;;;;;;;8.37;4.53;;;24.20;99.90;;;;;;4996376;28;20183;-74
2022/01/18 03:50:06;;;;;;;9.23;4.53;;;24.10;99.90;;;;;;4996206;28;20556;-72
2022/01/18 03:52:34;;;;;;;13.90;5.30;;;24.00;99.90;;;;;;4978849;28;20677;-72
2022/01/18 03:55:01;;;;;;;10.67;4.60;;;23.90;99.90;;;;;;4978906;28;20178;-73
2022/01/18 03:57:28;;;;;;;11.90;5.13;;;23.80;99.90;;;;;;4996305;28;20178;-74
2022/01/18 03:59:56;;;;;;;12.10;4.87;;;23.70;99.90;;;;;;4996145;28;20526;-72
2022/01/18 04:02:23;;;;;;;14.33;4.47;;;23.70;99.90;;;;;;4996521;28;20573;-73
2022/01/18 04:04:50;;;;;;;11.13;4.83;;;23.60;99.90;;;;;;4996055;28;20213;-72
2022/01/18 04:07:18;;;;;;;11.37;4.27;;;23.60;99.90;;;;;;4995695;28;20232;-71
2022/01/18 04:09:45;;;;;;;10.77;4.50;;;23.40;99.90;;;;;;4995518;28;20188;-71
2022/01/18 04:12:13;;;;;;;9.10;4.00;;;23.30;99.90;;;;;;4995750;28;20686;-73
2022/01/18 04:14:40;;;;;;;9.27;3.60;;;23.30;99.90;;;;;;4995917;28;20200;-72
2022/01/18 04:17:19;;;;;;;12.07;3.93;;;23.20;99.90;;;;;;4994943;28;20642;-73
2022/01/18 04:30:33;;;;;;;6.83;3.03;;;23.60;99.90;;;;;;4964922;28;20220;-72
2022/01/18 04:33:01;;;;;;;5.43;2.70;;;23.70;99.90;;;;;;4978196;28;20564;-71
2022/01/18 04:35:28;;;;;;;5.27;2.87;;;23.70;99.90;;;;;;4994921;28;20182;-72
2022/01/18 04:37:55;;;;;;;5.17;3.00;;;23.80;99.90;;;;;;4977724;28;20233;-72
2022/01/18 04:40:28;;;;;;;6.80;2.27;;;23.50;99.90;;;;;;4978269;28;20193;-73
2022/01/18 04:48:28;;;;;;;2.67;1.80;;;23.20;99.90;;;;;;4995394;28;20219;-70
2022/01/18 04:51:07;;;;;;;5.63;2.00;;;23.10;99.90;;;;;;4995763;28;20172;-73
2022/01/18 04:53:38;;;;;;;5.10;1.93;;;23.20;99.90;;;;;;4995370;28;20200;-72
2022/01/18 04:56:10;;;;;;;2.87;1.80;;;23.20;99.90;;;;;;4995528;28;20196;-71
2022/01/18 04:58:38;;;;;;;6.07;1.60;;;23.30;99.90;;;;;;4995415;28;20220;-72
2022/01/18 05:01:07;;;;;;;2.33;1.27;;;23.30;99.90;;;;;;4977429;28;20618;-73
2022/01/18 05:03:35;;;;;;;2.33;1.30;;;23.30;99.90;;;;;;4994445;28;20244;-72
2022/01/18 05:06:09;;;;;;;4.30;1.60;;;23.20;99.90;;;;;;4995619;28;20240;-74
2022/01/18 05:08:40;;;;;;;3.23;1.40;;;23.10;99.90;;;;;;4995713;28;20608;-74
2022/01/18 05:11:13;;;;;;;2.70;1.50;;;23.00;99.90;;;;;;4995400;28;20647;-75
2022/01/18 05:16:49;;;;;;;5.03;1.23;;;22.90;99.90;;;;;;4983859;28;20234;-73
2022/01/18 05:19:37;;;;;;;8.00;1.60;;;22.90;99.90;;;;;;4995545;28;20218;-72
2022/01/18 05:24:35;;;;;;;4.00;1.33;;;22.70;99.90;;;;;;4994798;28;20279;-74
2022/01/18 05:27:03;;;;;;;2.57;1.30;;;22.60;99.90;;;;;;4995021;28;20198;-73
2022/01/18 05:29:31;;;;;;;2.70;1.47;;;22.50;99.90;;;;;;4977535;28;20246;-74
2022/01/18 05:31:59;;;;;;;1.43;1.03;;;22.50;99.90;;;;;;4995320;28;20712;-73
2022/01/18 05:34:26;;;;;;;3.83;1.20;;;22.50;99.90;;;;;;4995221;28;20587;-73
2022/01/18 05:36:53;;;;;;;4.50;1.27;;;22.60;99.90;;;;;;4994512;28;20599;-74
2022/01/18 05:39:24;;;;;;;2.90;1.60;;;22.60;99.90;;;;;;4994891;28;20192;-75
2022/01/18 05:41:51;;;;;;;3.23;1.50;;;22.60;99.90;;;;;;4995366;28;20222;-75
2022/01/18 05:44:18;;;;;;;2.73;1.40;;;22.50;99.90;;;;;;4995214;28;20237;-73
2022/01/18 05:46:46;;;;;;;2.50;1.53;;;22.50;99.90;;;;;;4995128;28;20273;-72
2022/01/18 05:49:13;;;;;;;2.07;1.37;;;22.50;99.90;;;;;;4994824;28;20188;-71
2022/01/18 05:51:41;;;;;;;5.37;1.33;;;22.50;99.90;;;;;;4994221;28;20251;-71
2022/01/18 05:54:09;;;;;;;5.03;1.90;;;22.50;99.90;;;;;;4994379;28;20179;-72
2022/01/18 05:56:36;;;;;;;5.53;1.60;;;22.40;99.90;;;;;;4994395;28;20522;-71
2022/01/18 05:59:06;;;;;;;1.70;1.30;;;22.30;99.90;;;;;;4977103;28;20183;-75
2022/01/18 06:01:37;;;;;;;4.60;1.70;;;22.40;99.90;;;;;;4994666;28;20560;-73
2022/01/18 06:04:17;;;;;;;4.50;1.67;;;22.30;99.90;;;;;;4994587;28;20597;-73
2022/01/18 06:06:51;;;;;;;4.00;1.83;;;22.30;99.90;;;;;;4994569;28;20233;-73
2022/01/18 06:09:20;;;;;;;4.00;1.97;;;22.20;99.90;;;;;;4994330;28;20194;-72
2022/01/18 06:11:51;;;;;;;3.93;2.10;;;22.10;99.90;;;;;;4994184;28;20186;-73
2022/01/18 06:14:18;;;;;;;3.40;1.80;;;22.10;99.90;;;;;;4994229;28;20186;-73
2022/01/18 06:16:46;;;;;;;3.83;1.77;;;22.10;99.90;;;;;;4993862;28;20206;-72
2022/01/18 06:19:13;;;;;;;3.47;1.93;;;22.00;99.90;;;;;;4993870;28;20202;-73
2022/01/18 06:21:41;;;;;;;4.27;2.20;;;21.90;99.90;;;;;;4993653;28;20201;-74
2022/01/18 06:24:09;;;;;;;5.43;2.50;;;21.90;99.90;;;;;;4993798;28;20190;-73
2022/01/18 06:26:37;;;;;;;4.17;2.23;;;21.90;99.90;;;;;;4993843;28;20180;-73
2022/01/18 06:29:04;;;;;;;4.30;1.90;;;21.80;99.90;;;;;;4993488;28;20195;-72
2022/01/18 06:31:31;;;;;;;5.97;2.20;;;21.80;99.90;;;;;;4993831;28;20174;-74
2022/01/18 06:33:59;;;;;;;6.93;2.47;;;21.80;99.90;;;;;;4995043;28;20174;-76
2022/01/18 06:36:26;;;;;;;4.53;2.00;;;21.80;99.90;;;;;;4994526;28;20178;-71
2022/01/18 06:38:54;;;;;;;4.20;2.30;;;21.70;99.90;;;;;;4996490;28;20742;-77
2022/01/18 06:41:24;;;;;;;5.03;2.43;;;21.80;99.90;;;;;;4979607;28;20222;-78
2022/01/18 06:43:51;;;;;;;3.60;2.17;;;21.70;99.90;;;;;;5002836;28;20197;-74
2022/01/18 06:46:18;;;;;;;5.10;1.93;;;21.70;99.90;;;;;;5013619;28;20184;-75
2022/01/18 06:48:46;;;;;;;3.33;1.97;;;21.70;99.90;;;;;;5009878;28;20184;-76
2022/01/18 06:51:14;;;;;;;5.17;1.97;;;21.60;99.90;;;;;;4996692;28;20201;-76
2022/01/18 06:53:46;;;;;;;3.53;2.33;;;21.60;99.90;;;;;;4995370;28;20188;-76
2022/01/18 06:56:15;;;;;;;2.70;1.60;;;21.70;99.90;;;;;;4995113;28;20186;-79
2022/01/18 06:58:43;;;;;;;3.97;2.10;;;21.50;99.90;;;;;;4995012;28;20174;-77
2022/01/18 07:01:13;;;;;;;3.40;2.40;;;21.60;99.90;;;;;;4994370;28;20180;-76
2022/01/18 07:03:43;;;;;;;2.87;1.83;;;21.60;99.90;;;;;;4993972;28;20260;-72
2022/01/18 07:06:10;;;;;;;1.70;1.60;;;21.70;99.90;;;;;;4977335;28;20278;-73
2022/01/18 07:08:38;;;;;;;3.07;2.00;;;21.60;99.90;;;;;;4993663;28;20198;-70
2022/01/18 07:11:07;;;;;;;6.80;2.30;;;21.60;99.90;;;;;;4960902;28;20639;-76
2022/01/18 07:13:35;;;;;;;2.13;1.83;;;21.60;99.90;;;;;;4994263;28;20209;-77
2022/01/18 07:16:03;;;;;;;3.53;1.67;;;21.50;99.90;;;;;;4993021;28;20174;-78
2022/01/18 07:18:30;;;;;;;4.07;2.93;;;21.40;99.90;;;;;;4993731;28;20187;-76
2022/01/18 07:20:58;;;;;;;2.97;2.40;;;21.50;99.90;;;;;;4977145;28;20183;-77
2022/01/18 07:23:25;;;;;;;4.37;3.97;;;21.50;99.90;;;;;;4995950;28;20219;-76
2022/01/18 07:25:54;;;;;;;2.80;2.00;;;21.40;99.90;;;;;;4981886;28;20549;-78
2022/01/18 07:28:22;;;;;;;4.57;3.70;;;21.30;99.90;;;;;;4976588;28;20205;-77
2022/01/18 07:30:50;;;;;;;3.90;2.67;;;21.40;99.90;;;;;;4995092;28;20186;-79
2022/01/18 07:33:18;;;;;;;5.10;2.83;;;21.40;99.90;;;;;;4995857;28;20515;-76
2022/01/18 07:35:47;;;;;;;4.23;2.37;;;21.30;99.90;;;;;;4994600;28;20187;-75
2022/01/18 07:38:17;;;;;;;4.83;2.60;;;21.30;99.90;;;;;;4996762;28;20261;-78
2022/01/18 07:40:52;;;;;;;4.43;2.33;;;21.30;99.90;;;;;;4997610;28;20221;-77
2022/01/18 07:43:20;;;;;;;4.27;2.27;;;21.30;99.90;;;;;;4993813;28;20219;-77
2022/01/18 07:45:49;;;;;;;2.90;2.17;;;21.20;99.90;;;;;;4993579;28;20274;-77
2022/01/18 07:48:21;;;;;;;4.60;2.23;;;21.30;99.90;;;;;;4994621;28;20191;-78
2022/01/18 07:50:48;;;;;;;3.53;2.30;;;21.30;99.90;;;;;;4976120;28;20195;-75
2022/01/18 07:53:16;;;;;;;3.47;2.17;;;21.40;99.90;;;;;;4982612;28;20211;-75
2022/01/18 07:55:43;;;;;;;2.93;2.30;;;21.40;99.90;;;;;;4978202;28;20186;-78
2022/01/18 07:58:11;;;;;;;2.93;2.13;;;21.40;99.90;;;;;;4996032;28;20209;-77
2022/01/18 08:00:38;;;;;;;2.97;2.03;;;21.40;99.90;;;;;;4978349;28;20713;-77
2022/01/18 08:03:05;;;;;;;3.40;1.93;;;21.40;99.90;;;;;;4995789;28;20229;-76
2022/01/18 08:05:33;;;;;;;2.70;1.83;;;21.30;99.90;;;;;;4982428;28;20199;-77
2022/01/18 08:08:02;;;;;;;2.93;1.93;;;21.40;99.90;;;;;;4999573;28;20273;-78
2022/01/18 08:10:30;;;;;;;2.23;1.60;;;21.40;99.90;;;;;;4998861;28;20183;-77
2022/01/18 08:13:02;;;;;;;2.10;1.70;;;21.50;99.90;;;;;;4999501;28;20690;-78
2022/01/18 08:15:39;;;;;;;1.80;1.60;;;21.40;99.90;;;;;;4999462;28;20527;-74
2022/01/18 08:18:12;;;;;;;4.20;1.73;;;21.40;99.90;;;;;;4999927;28;20636;-76
2022/01/18 08:20:40;;;;;;;2.13;1.73;;;21.30;99.90;;;;;;4982835;28;20190;-74
2022/01/18 08:23:07;;;;;;;5.23;1.50;;;21.20;99.90;;;;;;4997662;28;20222;-78
2022/01/18 08:25:35;;;;;;;1.40;1.30;;;21.20;99.90;;;;;;4999626;28;20190;-76
2022/01/18 08:28:03;;;;;;;3.47;1.80;;;21.10;99.90;;;;;;4999002;28;20194;-77
2022/01/18 08:30:30;;;;;;;4.37;1.80;;;21.20;99.90;;;;;;4999422;28;20197;-77
2022/01/18 08:32:58;;;;;;;4.43;1.93;;;21.20;99.90;;;;;;4999194;28;20186;-77
2022/01/18 08:35:26;;;;;;;4.27;2.10;;;21.20;99.90;;;;;;4999570;28;20182;-74
2022/01/18 08:37:53;;;;;;;2.33;1.77;;;21.20;99.90;;;;;;4998916;28;20238;-75
2022/01/18 08:40:21;;;;;;;2.87;1.80;;;21.10;99.90;;;;;;4998986;28;20175;-75
2022/01/18 08:42:48;;;;;;;3.30;1.70;;;21.10;99.90;;;;;;4998214;28;20218;-77
2022/01/18 08:45:16;;;;;;;3.17;2.37;;;21.20;99.90;;;;;;4998400;28;20175;-79
2022/01/18 08:47:43;;;;;;;6.60;2.47;;;21.10;99.90;;;;;;4981098;28;20532;-76
2022/01/18 08:50:11;;;;;;;2.77;1.60;;;21.10;99.90;;;;;;4998187;28;20171;-77
2022/01/18 08:52:38;;;;;;;2.60;1.70;;;21.10;99.90;;;;;;4997620;28;20319;-75
2022/01/18 08:55:06;;;;;;;4.50;1.97;;;21.10;99.90;;;;;;4997523;28;20649;-72
2022/01/18 08:57:34;;;;;;;5.43;1.70;;;21.10;99.90;;;;;;4997227;28;20178;-75
2022/01/18 09:00:01;;;;;;;2.23;1.53;;;21.10;99.90;;;;;;4997266;28;20181;-75
2022/01/18 09:02:28;;;;;;;2.47;1.60;;;21.10;99.90;;;;;;4996565;28;20213;-75
2022/01/18 09:04:55;;;;;;;8.30;2.37;;;21.10;99.90;;;;;;4996338;28;20189;-75
2022/01/18 09:07:23;;;;;;;6.73;2.53;;;21.00;99.90;;;;;;4997069;28;20538;-77
2022/01/18 09:09:55;;;;;;;11.10;2.93;;;21.00;99.90;;;;;;4995961;28;20179;-77
2022/01/18 09:12:23;;;;;;;45.60;9.20;;;20.90;99.90;;;;;;4995747;28;20190;-74
2022/01/18 09:14:52;;;;;;;3.07;1.67;;;21.00;99.90;;;;;;4996326;28;20177;-76
2022/01/18 09:17:19;;;;;;;2.00;1.43;;;21.00;99.90;;;;;;4979490;28;20191;-74
2022/01/18 09:19:47;;;;;;;4.37;1.67;;;21.00;99.90;;;;;;4997831;28;20190;-76
2022/01/18 09:22:14;;;;;;;3.20;1.80;;;21.10;99.90;;;;;;4996000;28;20272;-76
2022/01/18 09:24:42;;;;;;;3.13;1.73;;;21.00;99.90;;;;;;4979240;28;20183;-76
2022/01/18 09:27:09;;;;;;;2.87;1.83;;;21.00;99.90;;;;;;4996400;28;20226;-76
2022/01/18 09:29:39;;;;;;;2.00;1.80;;;21.00;99.90;;;;;;4996044;28;20213;-76
2022/01/18 09:32:07;;;;;;;3.23;1.50;;;21.00;99.90;;;;;;4995910;28;20633;-76
2022/01/18 09:34:35;;;;;;;3.73;1.83;;;21.10;99.90;;;;;;4996900;28;20557;-74
2022/01/18 09:37:02;;;;;;;3.33;2.00;;;21.00;99.90;;;;;;4977855;28;20313;-74
2022/01/18 09:39:30;;;;;;;1.73;1.63;;;21.10;99.90;;;;;;4995988;28;20321;-75
2022/01/18 09:42:04;;;;;;;3.00;1.70;;;21.00;99.90;;;;;;4995386;28;20182;-75
2022/01/18 09:44:32;;;;;;;2.93;1.77;;;21.00;99.90;;;;;;4996163;28;20589;-77
2022/01/18 09:47:00;;;;;;;2.17;1.53;;;21.00;99.90;;;;;;4995612;28;20179;-78
2022/01/18 09:49:27;;;;;;;3.03;1.60;;;21.00;99.90;;;;;;4996031;28;20264;-75
2022/01/18 09:51:55;;;;;;;3.10;1.90;;;20.90;99.90;;;;;;4978350;28;20639;-75
2022/01/18 09:54:22;;;;;;;1.93;1.67;;;20.90;99.90;;;;;;4978376;28;20228;-75
2022/01/18 09:56:50;;;;;;;4.63;1.70;;;20.90;99.90;;;;;;4995480;28;20277;-74
2022/01/18 09:59:17;;;;;;;6.37;1.70;;;20.90;99.90;;;;;;4995348;28;20689;-76
2022/01/18 10:01:45;;;;;;;6.03;2.17;;;20.80;99.90;;;;;;4995456;28;20183;-75
2022/01/18 10:04:17;;;;;;;2.43;2.07;;;20.80;99.90;;;;;;4996000;28;20196;-75
2022/01/18 10:06:55;;;;;;;1.83;1.70;;;20.80;99.90;;;;;;4995537;28;20247;-75
2022/01/18 10:09:25;;;;;;;2.03;1.80;;;20.80;99.90;;;;;;4995911;28;20714;-75
2022/01/18 10:12:05;;;;;;;6.27;2.13;;;20.80;99.90;;;;;;4994696;28;20220;-74
2022/01/18 10:14:34;;;;;;;3.20;2.10;;;20.80;99.90;;;;;;4995030;28;20182;-75
2022/01/18 10:17:02;;;;;;;4.03;2.40;;;20.80;99.90;;;;;;4994491;28;20282;-71
2022/01/18 10:19:32;;;;;;;5.40;3.17;;;20.80;99.90;;;;;;4995250;28;20186;-71
2022/01/18 10:22:15;;;;;;;4.93;2.80;;;20.80;99.90;;;;;;4993135;28;20186;-74
2022/01/18 10:24:44;;;;;;;4.97;2.70;;;20.80;99.90;;;;;;4996351;28;20183;-76
2022/01/18 10:27:13;;;;;;;9.27;3.10;;;20.80;99.90;;;;;;4995300;28;20186;-76
2022/01/18 10:29:46;;;;;;;6.43;2.90;;;20.80;99.90;;;;;;4996052;28;20182;-72
2022/01/18 10:37:25;;;;;;;7.70;3.70;;;20.80;99.90;;;;;;4996362;28;20240;-73
2022/01/18 10:39:58;;;;;;;5.17;3.07;;;20.70;99.90;;;;;;4996460;28;20181;-76
2022/01/18 10:42:38;;;;;;;4.90;3.03;;;20.70;99.90;;;;;;4994544;28;20202;-75
2022/01/18 10:45:31;;;;;;;5.97;3.53;;;20.60;99.90;;;;;;4993622;28;20191;-75
2022/01/18 10:48:04;;;;;;;4.63;3.07;;;20.70;99.90;;;;;;4995436;28;20277;-75
2022/01/18 10:50:38;;;;;;;6.13;2.80;;;20.70;99.90;;;;;;4995668;28;20174;-76
2022/01/18 10:53:22;;;;;;;4.83;2.93;;;20.70;99.90;;;;;;4994838;28;20213;-76
2022/01/18 10:55:52;;;;;;;5.17;2.80;;;20.70;99.90;;;;;;4995123;28;20698;-75
2022/01/18 10:58:23;;;;;;;5.33;2.70;;;20.70;99.90;;;;;;4977690;28;20197;-76
2022/01/18 11:00:51;;;;;;;5.03;3.50;;;20.60;99.90;;;;;;4994947;28;20178;-75
2022/01/18 11:03:18;;;;;;;6.17;3.03;;;20.60;99.90;;;;;;4992279;28;20212;-77
2022/01/18 11:05:46;;;;;;;5.43;3.70;;;20.60;99.90;;;;;;4977434;28;20207;-77
2022/01/18 11:08:16;;;;;;;8.53;3.47;;;20.60;99.90;;;;;;4994867;28;20653;-78
2022/01/18 11:10:47;;;;;;;5.70;3.23;;;20.60;99.90;;;;;;4994993;28;20629;-77
2022/01/18 11:13:22;;;;;;;7.27;3.10;;;20.60;99.90;;;;;;4994351;28;20595;-77
2022/01/18 11:16:01;;;;;;;9.10;3.30;;;20.60;99.90;;;;;;4994224;28;20196;-77
2022/01/18 11:18:35;;;;;;;9.10;3.80;;;20.60;99.90;;;;;;4994785;28;20187;-75
2022/01/18 11:21:07;;;;;;;7.77;3.93;;;20.60;99.90;;;;;;4994617;28;20210;-74
2022/01/18 11:23:35;;;;;;;9.23;3.83;;;20.50;99.90;;;;;;4994596;28;20636;-76
2022/01/18 11:26:03;;;;;;;9.23;3.30;;;20.50;99.90;;;;;;4994686;28;20243;-76
2022/01/18 11:28:34;;;;;;;7.83;4.37;;;20.50;99.90;;;;;;4994709;28;20186;-76
2022/01/18 11:31:01;;;;;;;10.97;4.13;;;20.60;99.90;;;;;;4994342;28;20188;-75
2022/01/18 11:33:34;;;;;;;8.37;4.03;;;20.50;99.90;;;;;;4994495;28;20188;-76
2022/01/18 11:36:07;;;;;;;10.17;4.63;;;20.50;99.90;;;;;;4994073;28;20190;-77
2022/01/18 11:38:52;;;;;;;6.77;3.97;;;20.50;99.90;;;;;;4980032;28;20749;-75
2022/01/18 11:41:31;;;;;;;6.93;3.87;;;20.60;99.90;;;;;;4998264;28;20551;-77
2022/01/18 11:44:10;;;;;;;7.13;3.87;;;20.60;99.90;;;;;;4980859;28;20277;-77
2022/01/18 11:46:44;;;;;;;7.40;3.40;;;20.50;99.90;;;;;;4999156;28;20187;-77
2022/01/18 11:49:24;;;;;;;7.53;3.70;;;20.60;99.90;;;;;;4999261;28;20265;-78
2022/01/18 11:51:58;;;;;;;7.73;3.50;;;20.50;99.90;;;;;;5000892;28;20615;-76
2022/01/18 11:55:06;;;;;;;6.40;3.30;;;20.50;99.90;;;;;;4999320;28;20188;-75
2022/01/18 11:57:35;;;;;;;9.57;4.03;;;20.50;99.90;;;;;;4964135;28;20223;-76
2022/01/18 12:00:12;;;;;;;7.67;3.33;;;20.50;99.90;;;;;;4987844;28;20187;-76
2022/01/18 12:02:44;;;;;;;6.03;3.07;;;20.50;99.90;;;;;;4997691;28;20293;-74
2022/01/18 12:05:21;;;;;;;6.60;3.30;;;20.50;99.90;;;;;;4998220;28;20711;-77
2022/01/18 12:07:57;;;;;;;10.27;3.50;;;20.50;99.90;;;;;;4981033;28;20537;-77
2022/01/18 12:10:32;;;;;;;7.77;3.63;;;20.50;99.90;;;;;;4998344;28;20174;-77
2022/01/18 12:13:02;;;;;;;8.60;3.30;;;20.50;99.90;;;;;;4998114;28;20182;-76
2022/01/18 12:15:38;;;;;;;5.37;3.20;;;20.50;99.90;;;;;;4997895;28;20178;-74
2022/01/18 12:18:15;;;;;;;9.03;3.43;;;20.50;99.90;;;;;;4980634;28;20594;-76
2022/01/18 12:20:47;;;;;;;9.00;3.53;;;20.50;99.90;;;;;;4998262;28;20706;-75
2022/01/18 12:23:18;;;;;;;7.73;2.77;;;20.50;99.90;;;;;;4997441;28;20222;-76
2022/01/18 12:26:03;;;;;;;6.27;3.10;;;20.50;99.90;;;;;;4980543;28;20290;-75
2022/01/18 12:34:43;;;;;;;7.97;2.80;;;20.40;99.90;;;;;;4977260;28;20191;-75
2022/01/18 12:37:16;;;;;;;7.17;2.63;;;20.40;99.90;;;;;;4977113;28;20735;-76
2022/01/18 12:39:54;;;;;;;4.60;2.53;;;20.50;99.90;;;;;;4977218;28;20234;-75
2022/01/18 12:45:06;;;;;;;8.37;2.50;;;20.50;99.90;;;;;;4996323;28;20191;-74
2022/01/18 12:47:35;;;;;;;6.27;2.63;;;20.40;99.90;;;;;;4996624;28;20641;-76
2022/01/18 12:50:05;;;;;;;5.83;2.67;;;20.40;99.90;;;;;;4995440;28;20196;-73
2022/01/18 12:52:48;;;;;;;6.57;2.20;;;20.40;99.90;;;;;;4996127;28;20560;-75
2022/01/18 12:55:27;;;;;;;7.63;2.70;;;20.40;99.90;;;;;;4996543;28;20250;-74
2022/01/18 12:58:31;;;;;;;16.27;2.90;;;20.40;99.90;;;;;;4996354;28;20223;-77
2022/01/18 13:01:03;;;;;;;5.97;2.77;;;20.40;99.90;;;;;;4996241;28;20211;-75
2022/01/18 13:03:39;;;;;;;4.13;2.53;;;20.40;99.90;;;;;;4995872;28;20680;-75
2022/01/18 13:06:12;;;;;;;8.80;2.70;;;20.40;99.90;;;;;;4996188;28;20228;-76
2022/01/18 13:08:52;;;;;;;4.17;2.60;;;20.40;99.90;;;;;;4995997;28;20178;-76
2022/01/18 13:11:25;;;;;;;8.20;3.73;;;20.40;99.90;;;;;;4995643;28;20237;-74
2022/01/18 13:14:07;;;;;;;7.93;3.23;;;20.40;99.90;;;;;;4996142;28;20174;-75
2022/01/18 13:25:11;;;;;;;7.73;3.30;;;20.40;99.90;;;;;;4996307;28;20276;-73
2022/01/18 13:27:46;;;;;;;10.37;3.53;;;20.40;99.90;;;;;;4995673;28;20627;-75
2022/01/18 13:30:24;;;;;;;7.20;3.37;;;20.40;99.90;;;;;;4995471;28;20182;-75
2022/01/18 13:32:53;;;;;;;16.17;3.70;;;20.40;99.90;;;;;;4995094;28;20190;-73
2022/01/18 13:35:28;;;;;;;10.73;3.70;;;20.40;99.90;;;;;;4995800;28;20623;-73
2022/01/18 13:38:07;;;;;;;7.87;3.77;;;20.40;99.90;;;;;;4995273;28;20230;-76
2022/01/18 13:40:36;;;;;;;10.27;4.13;;;20.40;99.90;;;;;;4995529;28;20186;-74
2022/01/18 13:43:09;;;;;;;9.43;3.93;;;20.30;99.90;;;;;;4994486;28;20212;-75
2022/01/18 13:45:43;;;;;;;13.17;3.53;;;20.40;99.90;;;;;;4995464;28;20183;-75
2022/01/18 13:48:12;;;;;;;12.77;3.50;;;20.40;99.90;;;;;;4995170;28;20194;-77
2022/01/18 13:50:55;;;;;;;9.13;3.50;;;20.40;99.90;;;;;;4995801;28;20185;-76
2022/01/18 13:53:34;;;;;;;8.80;4.17;;;20.40;99.90;;;;;;4994933;28;20211;-74
2022/01/18 13:56:11;;;;;;;12.33;3.63;;;20.40;99.90;;;;;;4995078;28;20189;-74
2022/01/18 13:58:44;;;;;;;9.23;3.70;;;20.30;99.90;;;;;;4995274;28;20206;-76
2022/01/18 14:01:29;;;;;;;12.10;4.20;;;20.40;99.90;;;;;;4994474;28;20186;-73
2022/01/18 14:04:00;;;;;;;8.70;3.90;;;20.30;99.90;;;;;;4975766;28;20227;-77
2022/01/18 14:06:36;;;;;;;11.90;3.73;;;20.30;99.90;;;;;;4979085;28;20192;-77
2022/01/18 14:09:05;;;;;;;12.90;4.00;;;20.30;99.90;;;;;;4995212;28;20174;-77
2022/01/18 14:11:35;;;;;;;21.07;4.00;;;20.30;99.90;;;;;;4994674;28;20179;-77
2022/01/18 14:14:21;;;;;;;12.03;4.07;;;20.30;99.90;;;;;;4994985;28;20178;-77
2022/01/18 14:16:51;;;;;;;15.73;4.83;;;20.40;99.90;;;;;;4994328;28;20196;-77
2022/01/18 14:19:39;;;;;;;18.83;4.87;;;20.40;99.90;;;;;;4994719;28;20186;-74
2022/01/18 14:22:20;;;;;;;21.70;4.90;;;20.40;99.90;;;;;;4993894;28;20190;-75
2022/01/18 14:24:50;;;;;;;13.70;4.03;;;20.30;99.90;;;;;;4994993;28;20294;-75
2022/01/18 14:27:34;;;;;;;17.13;3.80;;;20.30;99.90;;;;;;4994934;28;20186;-76
2022/01/18 14:30:07;;;;;;;15.00;4.47;;;20.30;99.90;;;;;;4995875;28;20237;-75